^^

Meteo Aereoporti Centro-Italia

 

 
LIRZ - Perugia S.Egidio (208 m.)
Dati ricevuti: 29/11/2022 03:20
Molto nuvoloso
Molto nuvoloso
 Vento da S
Vento: S 2 km/h
TEMPERATURA: 7°C
P.to di Rugiada: 7°C
Umidità: 100%
Pressione: 1013 hPa
Nuvole: Molto nuvoloso
Visibilità: 7 km
Dettagli Nuvole: Molto nuvoloso 2499 m
2022/11/29 02:20 LIRZ 290220Z AUTO 17001KT 7000 BKN082/// 07/07 Q1013
 
LIPY - Ancona Falconara (12 m.)
Dati ricevuti: 29/11/2022 03:20
Molto nuvoloso
Molto nuvoloso
 Vento da direzione variabile
Vento: direzione variabile 4 km/h
TEMPERATURA: 8°C
P.to di Rugiada: 7°C
Umidità: 93%
Pressione: 1015 hPa
Nuvole: Molto nuvoloso
Visibilità: 9 km
Dettagli Nuvole: Poco nuvoloso 1402 m
Molto nuvoloso 2225 m
2022/11/29 02:20 LIPY 290220Z AUTO VRB02KT 9000 SCT046/// BKN073/// 08/07 Q1015
 
LIPR - Rimini Miramare (12 m.)
Dati ricevuti: 29/11/2022 03:20
Foschia, Molto Nuvoloso
Foschia, Molto Nuvoloso
 Vento da WNW
Vento: WNW 11 km/h
TEMPERATURA: 7°C
Raffreddamento da Vento: 5°C
P.to di Rugiada: 6°C
Umidità: 93%
Pressione: 1015 hPa
Condizioni generali: Foschia
Nuvole: Molto nuvoloso
Visibilità: 4 km
Dettagli Nuvole: Molto nuvoloso 792 m
Molto nuvoloso 3048 m
2022/11/29 02:20 LIPR 290220Z AUTO 29006KT 3800 BR BKN026/// BKN100/// 07/06 Q1015
 
LIRF - Roma Fiumicino (2 m.)
Dati ricevuti: 29/11/2022 03:20
Poco nuvoloso
Poco nuvoloso
 Vento da NE
Vento: NE 11 km/h
TEMPERATURA: 10°C
Raffreddamento da Vento: 8°C
P.to di Rugiada: 8°C
Umidità: 88%
Pressione: 1013 hPa
Nuvole: Poco nuvoloso
Visibilità: 10 km
Dettagli Nuvole: Poco nuvoloso 1524 m
2022/11/29 02:20 LIRF 290220Z 04006KT 9999 SCT050 10/08 Q1013 NOSIG
 
LIRA - Roma Ciampino (129 m.)
Dati ricevuti: 29/11/2022 02:50
Sereno
Sereno
 Vento da NNE
Vento: NNE 13 km/h
TEMPERATURA: 9°C
Raffreddamento da Vento: 7°C
P.to di Rugiada: 6°C
Umidità: 82%
Pressione: 1013 hPa
Condizioni generali: Sereno
Visibilità: oltre 10 km
2022/11/29 01:50 LIRA 290150Z 03007KT CAVOK 09/06 Q1013
 
LIRU - Roma Urbe (17 m.)
Dati ricevuti: 28/11/2022 16:50
Dati non aggiornati
Poco nuvoloso
Poco nuvoloso
 Vento da direzione variabile
Vento: direzione variabile 2 km/h
TEMPERATURA: 12°C
P.to di Rugiada: 8°C
Umidità: 77%
Pressione: 1015 hPa
Nuvole: Poco nuvoloso
Visibilità: 10 km
Dettagli Nuvole: Poco nuvoloso 1219 m
2022/11/28 15:50 LIRU 281550Z VRB01KT 9999 SCT040 12/08 Q1015
 
LIVF - Frontone (570 m.)
Dati ricevuti: 29/11/2022 02:55
Sereno
Sereno
 Vento da calm
Vento: Calma
TEMPERATURA: 6°C
P.to di Rugiada: 5°C
Umidità: 93%
Pressione: 1013 hPa
Condizioni generali: Sereno
Visibilità: oltre 10 km
2022/11/29 01:55 LIVF 290155Z 00000KT CAVOK 06/05 Q1013
 
LIRQ - Firenze Peretola (40 m.)
Dati ricevuti: 29/11/2022 03:20
Molto nuvoloso
Molto nuvoloso
 Vento da direzione variabile
Vento: direzione variabile 4 km/h
TEMPERATURA: 6°C
P.to di Rugiada: 5°C
Umidità: 93%
Pressione: 1014 hPa
Nuvole: Molto nuvoloso
Visibilità: 10 km
Dettagli Nuvole: Qualche nuvola 1585 m
Molto nuvoloso 2103 m
Molto nuvoloso 3962 m
2022/11/29 02:20 LIRQ 290220Z AUTO VRB02KT 9999 FEW052/// BKN069/// BKN130/// 06/05 Q1014
 
LIBP - Pescara (10 m.)
Dati ricevuti: 29/11/2022 03:20
Coperto
Coperto
 Vento da direzione variabile
Vento: direzione variabile 4 km/h
TEMPERATURA: 6°C
P.to di Rugiada: 6°C
Umidità: 100%
Pressione: 1015 hPa
Nuvole: Coperto
Visibilità: 10 km
Dettagli Nuvole: Coperto 4572 m
2022/11/29 02:20 LIBP 290220Z AUTO VRB02KT 9999 OVC150/// 06/06 Q1015
 
LIRV - Viterbo (300 m.)
Dati ricevuti: 28/11/2022 18:55
Dati non aggiornati
Molto nuvoloso
Molto nuvoloso
 Vento da NE
Vento: NE 15 km/h
TEMPERATURA: 7°C
Raffreddamento da Vento: 4°C
P.to di Rugiada: 5°C
Umidità: 87%
Pressione: 1015 hPa
Nuvole: Molto nuvoloso
Visibilità: 10 km
Dettagli Nuvole: Poco nuvoloso 549 m
Molto nuvoloso 732 m
2022/11/28 17:55 LIRV 281755Z 04008KT 9999 SCT018 BKN024 07/05 Q1015
 
LIQN - Rieti (389 m.)
Dati ricevuti: 28/11/2022 16:50
Dati non aggiornati
Sereno
Sereno
 Vento da direzione variabile
Vento: direzione variabile 0 km/h
TEMPERATURA: 9°C
P.to di Rugiada: 6°C
Umidità: 82%
Pressione: 1015 hPa
Condizioni generali: Sereno
Visibilità: oltre 10 km
2022/11/28 15:50 LIQN 281550Z /////KT CAVOK 09/06 Q1015
 
LIRG - Guidonia -RM- (88 m.)
Dati ricevuti: 28/11/2022 18:55
Dati non aggiornati
Poco nuvoloso
Poco nuvoloso
 Vento da direzione variabile
Vento: direzione variabile 4 km/h
TEMPERATURA: 10°C
P.to di Rugiada: 8°C
Umidità: 88%
Pressione: 1014 hPa
Nuvole: Poco nuvoloso
Visibilità: 10 km
Dettagli Nuvole: Poco nuvoloso 1219 m
2022/11/28 17:55 LIRG 281755Z VRB02KT 9999 SCT040 10/08 Q1014
 
LIRK - Terminillo -RI-(1874 m.)
Dati ricevuti: 29/11/2022 02:55

 Vento da direzione variabile
Vento: direzione variabile 0 km/h
2022/11/29 01:55 LIRK 290155Z AUTO /////KT //// ///// Q////
 
LIPK - Forlì (27 m.)
Dati ricevuti: 28/11/2022 22:50
Dati non aggiornati
Pioggia debole, Poco nuvoloso
Pioggia debole, Poco nuvoloso
 Vento da direzione variabile
Vento: direzione variabile 2 km/h
TEMPERATURA: 6°C
P.to di Rugiada: 3°C
Umidità: 81%
Pressione: 1017 hPa
Condizioni generali: Pioggia debole
Nuvole: Poco nuvoloso
Visibilità: 8 km
Dettagli Nuvole: Poco nuvoloso 914 m
2022/11/28 21:50 LIPK 282150Z VRB01KT 8000 -RA SCT030 06/03 Q1017
 
LIRS - Grosseto (5 m.)
Dati ricevuti: 29/11/2022 02:55
Qualche nuvola
Qualche nuvola
 Vento da NNE
Vento: NNE 11 km/h
TEMPERATURA: 8°C
Raffreddamento da Vento: 6°C
P.to di Rugiada: 6°C
Umidità: 87%
Pressione: 1013 hPa
Nuvole: Qualche nuvola
Visibilità: 10 km
Dettagli Nuvole: Qualche nuvola 610 m
2022/11/29 01:55 LIRS 290155Z 02006KT 9999 FEW020 08/06 Q1013
 
LIRP - Pisa S.Giusto (2 m.)
Dati ricevuti: 29/11/2022 03:15
Molto nuvoloso
Molto nuvoloso
 Vento da ESE
Vento: ESE 6 km/h
TEMPERATURA: 8°C
P.to di Rugiada: 6°C
Umidità: 87%
Pressione: 1013 hPa
Nuvole: Molto nuvoloso
Visibilità: 10 km
Dettagli Nuvole: Molto nuvoloso 914 m
2022/11/29 02:15 LIRP 290215Z 11003KT 9999 BKN030 08/06 Q1013 NOSIG